sensor_id;sensor_type;location;lat;lon;timestamp;P1;durP1;ratioP1;P2;durP2;ratioP2
44197;SDS011;30157;55.512;37.764;2024-02-16T00:00:17;12.93;;;6.00;;
44197;SDS011;30157;55.512;37.764;2024-02-16T00:02:44;6.40;;;2.72;;
44197;SDS011;30157;55.512;37.764;2024-02-16T00:05:11;10.18;;;4.40;;
44197;SDS011;30157;55.512;37.764;2024-02-16T00:07:37;15.13;;;6.97;;
44197;SDS011;30157;55.512;37.764;2024-02-16T00:10:04;15.25;;;5.88;;
44197;SDS011;30157;55.512;37.764;2024-02-16T00:12:31;15.45;;;6.53;;
44197;SDS011;30157;55.512;37.764;2024-02-16T00:15:00;12.68;;;6.20;;
44197;SDS011;30157;55.512;37.764;2024-02-16T00:17:26;9.85;;;3.88;;
44197;SDS011;30157;55.512;37.764;2024-02-16T00:19:52;14.60;;;6.05;;
44197;SDS011;30157;55.512;37.764;2024-02-16T00:22:19;12.50;;;5.85;;
44197;SDS011;30157;55.512;37.764;2024-02-16T00:24:45;15.25;;;5.75;;
44197;SDS011;30157;55.512;37.764;2024-02-16T00:27:10;14.18;;;6.18;;
44197;SDS011;30157;55.512;37.764;2024-02-16T00:29:36;6.43;;;3.72;;
44197;SDS011;30157;55.512;37.764;2024-02-16T00:32:06;11.23;;;5.05;;
44197;SDS011;30157;55.512;37.764;2024-02-16T00:34:32;8.07;;;3.20;;
44197;SDS011;30157;55.512;37.764;2024-02-16T00:36:59;13.02;;;5.90;;
44197;SDS011;30157;55.512;37.764;2024-02-16T00:39:25;15.05;;;6.35;;
44197;SDS011;30157;55.512;37.764;2024-02-16T00:41:51;12.07;;;5.60;;
44197;SDS011;30157;55.512;37.764;2024-02-16T00:44:17;17.05;;;6.50;;
44197;SDS011;30157;55.512;37.764;2024-02-16T00:46:43;15.07;;;6.40;;
44197;SDS011;30157;55.512;37.764;2024-02-16T00:49:09;16.25;;;6.50;;
44197;SDS011;30157;55.512;37.764;2024-02-16T00:51:39;15.18;;;4.15;;
44197;SDS011;30157;55.512;37.764;2024-02-16T00:54:05;13.48;;;5.40;;
44197;SDS011;30157;55.512;37.764;2024-02-16T00:56:34;13.15;;;5.28;;
44197;SDS011;30157;55.512;37.764;2024-02-16T00:59:00;11.77;;;5.65;;
44197;SDS011;30157;55.512;37.764;2024-02-16T01:01:26;19.85;;;8.00;;
44197;SDS011;30157;55.512;37.764;2024-02-16T01:03:52;13.35;;;5.35;;
44197;SDS011;30157;55.512;37.764;2024-02-16T01:06:18;13.77;;;5.90;;
44197;SDS011;30157;55.512;37.764;2024-02-16T01:08:44;15.05;;;6.30;;
44197;SDS011;30157;55.512;37.764;2024-02-16T01:11:10;12.68;;;5.60;;
44197;SDS011;30157;55.512;37.764;2024-02-16T01:13:35;12.20;;;5.45;;
44197;SDS011;30157;55.512;37.764;2024-02-16T01:16:02;10.73;;;5.30;;
44197;SDS011;30157;55.512;37.764;2024-02-16T01:18:29;15.32;;;6.85;;
44197;SDS011;30157;55.512;37.764;2024-02-16T01:20:55;13.15;;;5.55;;
44197;SDS011;30157;55.512;37.764;2024-02-16T01:23:21;12.35;;;5.68;;
44197;SDS011;30157;55.512;37.764;2024-02-16T01:25:47;15.43;;;5.85;;
44197;SDS011;30157;55.512;37.764;2024-02-16T01:28:13;11.75;;;4.50;;
44197;SDS011;30157;55.512;37.764;2024-02-16T01:30:40;16.45;;;7.38;;
44197;SDS011;30157;55.512;37.764;2024-02-16T01:33:06;13.73;;;6.47;;
44197;SDS011;30157;55.512;37.764;2024-02-16T01:35:32;15.25;;;5.43;;
44197;SDS011;30157;55.512;37.764;2024-02-16T01:37:58;11.15;;;5.38;;
44197;SDS011;30157;55.512;37.764;2024-02-16T01:40:25;12.77;;;6.05;;
44197;SDS011;30157;55.512;37.764;2024-02-16T01:42:52;15.93;;;6.18;;
44197;SDS011;30157;55.512;37.764;2024-02-16T01:45:20;14.73;;;6.18;;
44197;SDS011;30157;55.512;37.764;2024-02-16T01:47:50;11.75;;;4.63;;
44197;SDS011;30157;55.512;37.764;2024-02-16T01:50:17;13.57;;;5.88;;
44197;SDS011;30157;55.512;37.764;2024-02-16T01:52:44;14.40;;;5.70;;
44197;SDS011;30157;55.512;37.764;2024-02-16T01:55:12;10.98;;;4.63;;
44197;SDS011;30157;55.512;37.764;2024-02-16T01:57:44;13.98;;;6.05;;
44197;SDS011;30157;55.512;37.764;2024-02-16T02:00:12;14.75;;;3.75;;
44197;SDS011;30157;55.512;37.764;2024-02-16T02:02:40;14.32;;;5.65;;
44197;SDS011;30157;55.512;37.764;2024-02-16T02:05:09;13.45;;;5.68;;
44197;SDS011;30157;55.512;37.764;2024-02-16T02:07:34;14.15;;;6.25;;
44197;SDS011;30157;55.512;37.764;2024-02-16T02:10:00;14.20;;;5.88;;
44197;SDS011;30157;55.512;37.764;2024-02-16T02:12:26;11.18;;;4.85;;
44197;SDS011;30157;55.512;37.764;2024-02-16T02:14:52;10.00;;;4.75;;
44197;SDS011;30157;55.512;37.764;2024-02-16T02:17:18;10.30;;;4.72;;
44197;SDS011;30157;55.512;37.764;2024-02-16T02:19:46;14.00;;;6.40;;
44197;SDS011;30157;55.512;37.764;2024-02-16T02:22:19;11.25;;;5.85;;
44197;SDS011;30157;55.512;37.764;2024-02-16T02:24:45;10.38;;;4.82;;
44197;SDS011;30157;55.512;37.764;2024-02-16T02:27:12;12.25;;;5.82;;
44197;SDS011;30157;55.512;37.764;2024-02-16T02:29:38;12.82;;;7.00;;
44197;SDS011;30157;55.512;37.764;2024-02-16T02:32:05;17.05;;;4.45;;
44197;SDS011;30157;55.512;37.764;2024-02-16T02:34:31;15.10;;;5.65;;
44197;SDS011;30157;55.512;37.764;2024-02-16T02:36:56;15.73;;;6.82;;
44197;SDS011;30157;55.512;37.764;2024-02-16T02:39:22;13.15;;;6.28;;
44197;SDS011;30157;55.512;37.764;2024-02-16T02:41:48;14.73;;;5.93;;
44197;SDS011;30157;55.512;37.764;2024-02-16T02:44:14;11.57;;;5.03;;
44197;SDS011;30157;55.512;37.764;2024-02-16T02:46:39;16.20;;;6.22;;
44197;SDS011;30157;55.512;37.764;2024-02-16T02:49:05;14.98;;;6.57;;
44197;SDS011;30157;55.512;37.764;2024-02-16T02:51:31;10.50;;;5.50;;
44197;SDS011;30157;55.512;37.764;2024-02-16T02:53:56;15.93;;;6.30;;
44197;SDS011;30157;55.512;37.764;2024-02-16T02:56:22;15.45;;;7.07;;
44197;SDS011;30157;55.512;37.764;2024-02-16T02:58:48;14.95;;;5.97;;
44197;SDS011;30157;55.512;37.764;2024-02-16T03:01:13;13.00;;;4.95;;
44197;SDS011;30157;55.512;37.764;2024-02-16T03:03:39;13.23;;;5.30;;
44197;SDS011;30157;55.512;37.764;2024-02-16T03:06:06;14.40;;;5.68;;
44197;SDS011;30157;55.512;37.764;2024-02-16T03:08:33;14.05;;;6.50;;
44197;SDS011;30157;55.512;37.764;2024-02-16T03:10:59;12.27;;;5.35;;
44197;SDS011;30157;55.512;37.764;2024-02-16T03:13:29;12.57;;;4.82;;
44197;SDS011;30157;55.512;37.764;2024-02-16T03:15:55;18.13;;;5.00;;
44197;SDS011;30157;55.512;37.764;2024-02-16T03:18:20;12.25;;;5.47;;
44197;SDS011;30157;55.512;37.764;2024-02-16T03:20:46;16.52;;;6.35;;
44197;SDS011;30157;55.512;37.764;2024-02-16T03:23:14;12.15;;;4.47;;
44197;SDS011;30157;55.512;37.764;2024-02-16T03:25:40;14.35;;;5.32;;
44197;SDS011;30157;55.512;37.764;2024-02-16T03:28:07;12.10;;;5.60;;
44197;SDS011;30157;55.512;37.764;2024-02-16T03:30:35;10.77;;;4.93;;
44197;SDS011;30157;55.512;37.764;2024-02-16T03:33:00;17.77;;;7.88;;
44197;SDS011;30157;55.512;37.764;2024-02-16T03:35:26;17.73;;;6.50;;
44197;SDS011;30157;55.512;37.764;2024-02-16T03:37:52;13.73;;;6.03;;
44197;SDS011;30157;55.512;37.764;2024-02-16T03:40:18;11.80;;;5.32;;
44197;SDS011;30157;55.512;37.764;2024-02-16T03:42:44;13.38;;;6.32;;
44197;SDS011;30157;55.512;37.764;2024-02-16T03:45:10;13.07;;;6.18;;
44197;SDS011;30157;55.512;37.764;2024-02-16T03:47:36;16.25;;;6.38;;
44197;SDS011;30157;55.512;37.764;2024-02-16T03:50:04;14.40;;;6.15;;
44197;SDS011;30157;55.512;37.764;2024-02-16T03:52:32;13.63;;;6.15;;
44197;SDS011;30157;55.512;37.764;2024-02-16T03:54:58;10.90;;;4.82;;
44197;SDS011;30157;55.512;37.764;2024-02-16T03:57:23;16.38;;;7.22;;
44197;SDS011;30157;55.512;37.764;2024-02-16T03:59:49;14.48;;;6.40;;
44197;SDS011;30157;55.512;37.764;2024-02-16T04:02:14;14.43;;;6.55;;
44197;SDS011;30157;55.512;37.764;2024-02-16T04:04:40;15.38;;;6.50;;
44197;SDS011;30157;55.512;37.764;2024-02-16T04:07:09;17.98;;;6.78;;
44197;SDS011;30157;55.512;37.764;2024-02-16T04:09:35;14.57;;;6.88;;
44197;SDS011;30157;55.512;37.764;2024-02-16T04:12:01;14.50;;;6.88;;
44197;SDS011;30157;55.512;37.764;2024-02-16T04:14:29;15.90;;;5.57;;
44197;SDS011;30157;55.512;37.764;2024-02-16T04:16:55;13.18;;;6.32;;
44197;SDS011;30157;55.512;37.764;2024-02-16T04:19:24;15.15;;;6.43;;
44197;SDS011;30157;55.512;37.764;2024-02-16T04:21:50;16.15;;;6.55;;
44197;SDS011;30157;55.512;37.764;2024-02-16T04:24:16;12.25;;;6.00;;
44197;SDS011;30157;55.512;37.764;2024-02-16T04:26:43;14.63;;;5.57;;
44197;SDS011;30157;55.512;37.764;2024-02-16T04:29:09;12.13;;;5.28;;
44197;SDS011;30157;55.512;37.764;2024-02-16T04:31:38;13.05;;;5.88;;
44197;SDS011;30157;55.512;37.764;2024-02-16T04:34:05;12.75;;;5.28;;
44197;SDS011;30157;55.512;37.764;2024-02-16T04:36:31;14.25;;;6.70;;
44197;SDS011;30157;55.512;37.764;2024-02-16T04:38:56;16.67;;;7.70;;
44197;SDS011;30157;55.512;37.764;2024-02-16T04:41:22;13.38;;;6.15;;
44197;SDS011;30157;55.512;37.764;2024-02-16T04:43:48;13.15;;;5.45;;
44197;SDS011;30157;55.512;37.764;2024-02-16T04:46:15;11.00;;;4.63;;
44197;SDS011;30157;55.512;37.764;2024-02-16T04:48:41;14.27;;;6.10;;
44197;SDS011;30157;55.512;37.764;2024-02-16T04:51:06;16.60;;;6.25;;
44197;SDS011;30157;55.512;37.764;2024-02-16T04:53:32;14.18;;;6.30;;
44197;SDS011;30157;55.512;37.764;2024-02-16T04:55:58;13.23;;;6.25;;
44197;SDS011;30157;55.512;37.764;2024-02-16T04:58:23;13.82;;;6.15;;
44197;SDS011;30157;55.512;37.764;2024-02-16T05:00:49;11.40;;;4.93;;
44197;SDS011;30157;55.512;37.764;2024-02-16T05:03:15;13.15;;;5.90;;
44197;SDS011;30157;55.512;37.764;2024-02-16T05:05:40;15.68;;;6.65;;
44197;SDS011;30157;55.512;37.764;2024-02-16T05:08:06;13.18;;;6.68;;
44197;SDS011;30157;55.512;37.764;2024-02-16T05:10:32;16.55;;;7.03;;
44197;SDS011;30157;55.512;37.764;2024-02-16T05:12:57;14.70;;;5.78;;
44197;SDS011;30157;55.512;37.764;2024-02-16T05:15:23;11.23;;;5.28;;
44197;SDS011;30157;55.512;37.764;2024-02-16T05:17:49;19.83;;;6.70;;
44197;SDS011;30157;55.512;37.764;2024-02-16T05:20:16;13.50;;;6.25;;
44197;SDS011;30157;55.512;37.764;2024-02-16T05:22:42;12.02;;;5.90;;
44197;SDS011;30157;55.512;37.764;2024-02-16T05:25:14;15.48;;;6.20;;
44197;SDS011;30157;55.512;37.764;2024-02-16T05:27:43;15.88;;;6.45;;
44197;SDS011;30157;55.512;37.764;2024-02-16T05:30:09;13.57;;;5.82;;
44197;SDS011;30157;55.512;37.764;2024-02-16T05:32:38;13.32;;;5.68;;
44197;SDS011;30157;55.512;37.764;2024-02-16T05:35:04;12.25;;;4.95;;
44197;SDS011;30157;55.512;37.764;2024-02-16T05:37:40;13.13;;;5.47;;
44197;SDS011;30157;55.512;37.764;2024-02-16T05:40:09;14.98;;;5.82;;
44197;SDS011;30157;55.512;37.764;2024-02-16T05:42:46;14.85;;;6.90;;
44197;SDS011;30157;55.512;37.764;2024-02-16T05:45:13;16.40;;;7.22;;
44197;SDS011;30157;55.512;37.764;2024-02-16T05:47:40;14.10;;;7.15;;
44197;SDS011;30157;55.512;37.764;2024-02-16T05:50:08;15.13;;;7.50;;
44197;SDS011;30157;55.512;37.764;2024-02-16T05:52:34;15.18;;;6.55;;
44197;SDS011;30157;55.512;37.764;2024-02-16T05:55:00;16.33;;;7.05;;
44197;SDS011;30157;55.512;37.764;2024-02-16T05:57:26;18.50;;;7.65;;
44197;SDS011;30157;55.512;37.764;2024-02-16T05:59:51;8.55;;;4.70;;
44197;SDS011;30157;55.512;37.764;2024-02-16T06:02:17;13.55;;;6.35;;
44197;SDS011;30157;55.512;37.764;2024-02-16T06:04:43;16.77;;;7.93;;
44197;SDS011;30157;55.512;37.764;2024-02-16T06:07:09;17.65;;;7.50;;
44197;SDS011;30157;55.512;37.764;2024-02-16T06:09:36;16.77;;;7.22;;
44197;SDS011;30157;55.512;37.764;2024-02-16T06:12:03;14.45;;;6.45;;
44197;SDS011;30157;55.512;37.764;2024-02-16T06:14:30;17.67;;;6.95;;
44197;SDS011;30157;55.512;37.764;2024-02-16T06:16:56;14.88;;;7.40;;
44197;SDS011;30157;55.512;37.764;2024-02-16T06:19:22;18.50;;;7.50;;
44197;SDS011;30157;55.512;37.764;2024-02-16T06:21:48;18.73;;;7.38;;
44197;SDS011;30157;55.512;37.764;2024-02-16T06:24:13;16.13;;;6.47;;
44197;SDS011;30157;55.512;37.764;2024-02-16T06:26:39;15.52;;;7.55;;
44197;SDS011;30157;55.512;37.764;2024-02-16T06:29:05;16.75;;;7.03;;
44197;SDS011;30157;55.512;37.764;2024-02-16T06:31:30;17.77;;;8.57;;
44197;SDS011;30157;55.512;37.764;2024-02-16T06:33:56;19.25;;;7.72;;
44197;SDS011;30157;55.512;37.764;2024-02-16T06:36:22;17.10;;;7.57;;
44197;SDS011;30157;55.512;37.764;2024-02-16T06:38:48;17.85;;;8.55;;
44197;SDS011;30157;55.512;37.764;2024-02-16T06:41:13;18.48;;;7.95;;
44197;SDS011;30157;55.512;37.764;2024-02-16T06:43:39;21.42;;;10.13;;
44197;SDS011;30157;55.512;37.764;2024-02-16T06:46:05;14.57;;;6.80;;
44197;SDS011;30157;55.512;37.764;2024-02-16T06:48:31;15.15;;;6.80;;
44197;SDS011;30157;55.512;37.764;2024-02-16T06:50:56;18.02;;;8.05;;
44197;SDS011;30157;55.512;37.764;2024-02-16T06:53:22;16.70;;;7.95;;
44197;SDS011;30157;55.512;37.764;2024-02-16T06:55:47;16.73;;;6.53;;
44197;SDS011;30157;55.512;37.764;2024-02-16T06:58:13;18.65;;;7.78;;
44197;SDS011;30157;55.512;37.764;2024-02-16T07:00:39;15.38;;;6.18;;
44197;SDS011;30157;55.512;37.764;2024-02-16T07:03:07;11.15;;;3.85;;
44197;SDS011;30157;55.512;37.764;2024-02-16T07:05:34;16.20;;;7.55;;
44197;SDS011;30157;55.512;37.764;2024-02-16T07:08:00;20.08;;;9.02;;
44197;SDS011;30157;55.512;37.764;2024-02-16T07:10:26;19.20;;;8.25;;
44197;SDS011;30157;55.512;37.764;2024-02-16T07:12:51;17.50;;;7.93;;
44197;SDS011;30157;55.512;37.764;2024-02-16T07:15:17;19.40;;;8.15;;
44197;SDS011;30157;55.512;37.764;2024-02-16T07:17:43;19.00;;;8.93;;
44197;SDS011;30157;55.512;37.764;2024-02-16T07:20:10;23.13;;;9.45;;
44197;SDS011;30157;55.512;37.764;2024-02-16T07:22:36;19.08;;;8.18;;
44197;SDS011;30157;55.512;37.764;2024-02-16T07:25:01;21.08;;;8.40;;
44197;SDS011;30157;55.512;37.764;2024-02-16T07:27:28;17.35;;;7.38;;
44197;SDS011;30157;55.512;37.764;2024-02-16T07:29:54;18.55;;;7.85;;
44197;SDS011;30157;55.512;37.764;2024-02-16T07:32:20;19.95;;;8.18;;
44197;SDS011;30157;55.512;37.764;2024-02-16T07:34:46;22.63;;;9.90;;
44197;SDS011;30157;55.512;37.764;2024-02-16T07:37:13;18.05;;;8.02;;
44197;SDS011;30157;55.512;37.764;2024-02-16T07:39:41;21.20;;;9.52;;
44197;SDS011;30157;55.512;37.764;2024-02-16T07:42:06;13.77;;;6.18;;
44197;SDS011;30157;55.512;37.764;2024-02-16T07:44:35;22.55;;;9.43;;
44197;SDS011;30157;55.512;37.764;2024-02-16T07:47:01;19.65;;;8.70;;
44197;SDS011;30157;55.512;37.764;2024-02-16T07:49:27;13.88;;;7.05;;
44197;SDS011;30157;55.512;37.764;2024-02-16T07:51:53;20.30;;;9.23;;
44197;SDS011;30157;55.512;37.764;2024-02-16T07:54:18;26.42;;;10.27;;
44197;SDS011;30157;55.512;37.764;2024-02-16T07:56:44;18.38;;;7.32;;
44197;SDS011;30157;55.512;37.764;2024-02-16T07:59:10;15.65;;;6.22;;
44197;SDS011;30157;55.512;37.764;2024-02-16T08:01:35;7.63;;;2.45;;
44197;SDS011;30157;55.512;37.764;2024-02-16T08:04:01;23.92;;;9.15;;
44197;SDS011;30157;55.512;37.764;2024-02-16T08:06:27;20.05;;;9.35;;
44197;SDS011;30157;55.512;37.764;2024-02-16T08:08:53;17.45;;;7.47;;
44197;SDS011;30157;55.512;37.764;2024-02-16T08:11:19;22.08;;;9.05;;
44197;SDS011;30157;55.512;37.764;2024-02-16T08:13:45;21.80;;;9.18;;
44197;SDS011;30157;55.512;37.764;2024-02-16T08:16:11;6.55;;;3.30;;
44197;SDS011;30157;55.512;37.764;2024-02-16T08:18:37;22.98;;;10.55;;
44197;SDS011;30157;55.512;37.764;2024-02-16T08:21:03;20.50;;;8.27;;
44197;SDS011;30157;55.512;37.764;2024-02-16T08:23:29;19.17;;;8.57;;
44197;SDS011;30157;55.512;37.764;2024-02-16T08:25:55;15.95;;;6.93;;
44197;SDS011;30157;55.512;37.764;2024-02-16T08:28:22;19.67;;;9.48;;
44197;SDS011;30157;55.512;37.764;2024-02-16T08:30:48;20.88;;;9.75;;
44197;SDS011;30157;55.512;37.764;2024-02-16T08:33:14;23.52;;;10.30;;
44197;SDS011;30157;55.512;37.764;2024-02-16T08:35:40;18.73;;;7.95;;
44197;SDS011;30157;55.512;37.764;2024-02-16T08:38:05;16.38;;;8.27;;
44197;SDS011;30157;55.512;37.764;2024-02-16T08:40:35;25.90;;;12.45;;
44197;SDS011;30157;55.512;37.764;2024-02-16T08:43:02;24.90;;;9.65;;
44197;SDS011;30157;55.512;37.764;2024-02-16T08:45:28;23.70;;;9.00;;
44197;SDS011;30157;55.512;37.764;2024-02-16T08:47:54;21.60;;;10.05;;
44197;SDS011;30157;55.512;37.764;2024-02-16T08:50:21;20.30;;;9.07;;
44197;SDS011;30157;55.512;37.764;2024-02-16T08:52:47;20.55;;;10.10;;
44197;SDS011;30157;55.512;37.764;2024-02-16T08:55:13;20.90;;;9.90;;
44197;SDS011;30157;55.512;37.764;2024-02-16T08:57:38;24.67;;;10.75;;
44197;SDS011;30157;55.512;37.764;2024-02-16T09:00:04;22.98;;;10.13;;
44197;SDS011;30157;55.512;37.764;2024-02-16T09:02:30;22.92;;;9.05;;
44197;SDS011;30157;55.512;37.764;2024-02-16T09:04:56;23.50;;;9.88;;
44197;SDS011;30157;55.512;37.764;2024-02-16T09:07:22;21.90;;;10.55;;
44197;SDS011;30157;55.512;37.764;2024-02-16T09:09:47;16.50;;;8.15;;
44197;SDS011;30157;55.512;37.764;2024-02-16T09:12:13;24.55;;;10.27;;
44197;SDS011;30157;55.512;37.764;2024-02-16T09:14:39;22.33;;;9.02;;
44197;SDS011;30157;55.512;37.764;2024-02-16T09:17:04;19.73;;;8.93;;
44197;SDS011;30157;55.512;37.764;2024-02-16T09:19:30;22.85;;;10.57;;
44197;SDS011;30157;55.512;37.764;2024-02-16T09:21:56;23.60;;;11.10;;
44197;SDS011;30157;55.512;37.764;2024-02-16T09:24:23;23.77;;;11.40;;
44197;SDS011;30157;55.512;37.764;2024-02-16T09:26:53;22.63;;;10.20;;
44197;SDS011;30157;55.512;37.764;2024-02-16T09:29:19;28.10;;;9.35;;
44197;SDS011;30157;55.512;37.764;2024-02-16T09:31:44;25.67;;;11.07;;
44197;SDS011;30157;55.512;37.764;2024-02-16T09:34:13;17.50;;;8.13;;
44197;SDS011;30157;55.512;37.764;2024-02-16T09:36:39;16.85;;;7.65;;
44197;SDS011;30157;55.512;37.764;2024-02-16T09:39:05;15.85;;;8.05;;
44197;SDS011;30157;55.512;37.764;2024-02-16T09:41:32;24.13;;;10.65;;
44197;SDS011;30157;55.512;37.764;2024-02-16T09:44:02;24.95;;;11.25;;
44197;SDS011;30157;55.512;37.764;2024-02-16T09:46:28;29.50;;;11.13;;
44197;SDS011;30157;55.512;37.764;2024-02-16T09:48:56;21.83;;;9.48;;
44197;SDS011;30157;55.512;37.764;2024-02-16T09:51:24;22.35;;;10.50;;
44197;SDS011;30157;55.512;37.764;2024-02-16T09:53:50;25.52;;;10.10;;
44197;SDS011;30157;55.512;37.764;2024-02-16T09:56:22;17.45;;;9.05;;
44197;SDS011;30157;55.512;37.764;2024-02-16T09:58:52;24.45;;;10.77;;
44197;SDS011;30157;55.512;37.764;2024-02-16T10:01:20;30.15;;;12.65;;
44197;SDS011;30157;55.512;37.764;2024-02-16T10:03:47;18.75;;;8.27;;
44197;SDS011;30157;55.512;37.764;2024-02-16T10:06:31;23.40;;;10.90;;
44197;SDS011;30157;55.512;37.764;2024-02-16T10:08:57;20.92;;;9.40;;
44197;SDS011;30157;55.512;37.764;2024-02-16T10:11:24;26.58;;;9.57;;
44197;SDS011;30157;55.512;37.764;2024-02-16T10:14:02;21.58;;;8.18;;
44197;SDS011;30157;55.512;37.764;2024-02-16T10:16:29;20.35;;;9.68;;
44197;SDS011;30157;55.512;37.764;2024-02-16T10:18:56;23.25;;;10.15;;
44197;SDS011;30157;55.512;37.764;2024-02-16T10:21:29;21.48;;;9.65;;
44197;SDS011;30157;55.512;37.764;2024-02-16T10:24:20;13.43;;;6.72;;
44197;SDS011;30157;55.512;37.764;2024-02-16T10:26:46;19.35;;;9.27;;
44197;SDS011;30157;55.512;37.764;2024-02-16T10:29:12;21.52;;;9.90;;
44197;SDS011;30157;55.512;37.764;2024-02-16T10:31:39;21.88;;;10.10;;
44197;SDS011;30157;55.512;37.764;2024-02-16T10:34:05;24.38;;;10.45;;
44197;SDS011;30157;55.512;37.764;2024-02-16T10:36:32;26.50;;;11.27;;
44197;SDS011;30157;55.512;37.764;2024-02-16T10:39:00;22.70;;;10.52;;
44197;SDS011;30157;55.512;37.764;2024-02-16T10:41:37;19.02;;;7.60;;
44197;SDS011;30157;55.512;37.764;2024-02-16T10:44:05;23.25;;;10.13;;
44197;SDS011;30157;55.512;37.764;2024-02-16T10:46:31;17.80;;;8.07;;
44197;SDS011;30157;55.512;37.764;2024-02-16T10:49:50;20.80;;;7.97;;
44197;SDS011;30157;55.512;37.764;2024-02-16T10:52:15;25.88;;;10.38;;
44197;SDS011;30157;55.512;37.764;2024-02-16T10:54:43;23.05;;;9.50;;
44197;SDS011;30157;55.512;37.764;2024-02-16T10:57:09;25.65;;;11.23;;
44197;SDS011;30157;55.512;37.764;2024-02-16T10:59:41;20.00;;;8.32;;
44197;SDS011;30157;55.512;37.764;2024-02-16T11:02:16;23.98;;;11.93;;
44197;SDS011;30157;55.512;37.764;2024-02-16T11:04:45;21.13;;;9.93;;
44197;SDS011;30157;55.512;37.764;2024-02-16T11:07:13;23.65;;;10.55;;
44197;SDS011;30157;55.512;37.764;2024-02-16T11:09:41;20.40;;;8.88;;
44197;SDS011;30157;55.512;37.764;2024-02-16T11:12:08;16.40;;;7.07;;
44197;SDS011;30157;55.512;37.764;2024-02-16T11:14:41;23.58;;;10.75;;
44197;SDS011;30157;55.512;37.764;2024-02-16T11:17:11;22.25;;;10.63;;
44197;SDS011;30157;55.512;37.764;2024-02-16T11:19:44;11.98;;;5.55;;
44197;SDS011;30157;55.512;37.764;2024-02-16T11:22:14;23.23;;;10.45;;
44197;SDS011;30157;55.512;37.764;2024-02-16T11:24:44;17.27;;;7.68;;
44197;SDS011;30157;55.512;37.764;2024-02-16T11:27:11;17.13;;;6.97;;
44197;SDS011;30157;55.512;37.764;2024-02-16T11:29:46;13.68;;;6.78;;
44197;SDS011;30157;55.512;37.764;2024-02-16T11:32:12;18.45;;;7.38;;
44197;SDS011;30157;55.512;37.764;2024-02-16T11:34:38;17.98;;;7.75;;
44197;SDS011;30157;55.512;37.764;2024-02-16T11:37:04;19.17;;;8.80;;
44197;SDS011;30157;55.512;37.764;2024-02-16T11:39:33;23.80;;;10.38;;
44197;SDS011;30157;55.512;37.764;2024-02-16T11:44:35;22.20;;;9.98;;
44197;SDS011;30157;55.512;37.764;2024-02-16T11:47:08;16.70;;;8.10;;
44197;SDS011;30157;55.512;37.764;2024-02-16T11:49:38;16.45;;;7.60;;
44197;SDS011;30157;55.512;37.764;2024-02-16T11:52:05;11.30;;;4.78;;
44197;SDS011;30157;55.512;37.764;2024-02-16T11:54:30;18.73;;;7.75;;
44197;SDS011;30157;55.512;37.764;2024-02-16T11:56:57;21.85;;;9.23;;
44197;SDS011;30157;55.512;37.764;2024-02-16T11:59:23;23.25;;;10.25;;
44197;SDS011;30157;55.512;37.764;2024-02-16T12:01:53;18.35;;;8.15;;
44197;SDS011;30157;55.512;37.764;2024-02-16T12:04:22;15.43;;;7.45;;
44197;SDS011;30157;55.512;37.764;2024-02-16T12:06:56;15.20;;;7.22;;
44197;SDS011;30157;55.512;37.764;2024-02-16T12:09:23;17.70;;;9.00;;
44197;SDS011;30157;55.512;37.764;2024-02-16T12:11:51;20.23;;;9.68;;
44197;SDS011;30157;55.512;37.764;2024-02-16T12:14:18;20.55;;;8.95;;
44197;SDS011;30157;55.512;37.764;2024-02-16T12:16:51;19.85;;;9.88;;
44197;SDS011;30157;55.512;37.764;2024-02-16T12:19:20;21.80;;;8.50;;
44197;SDS011;30157;55.512;37.764;2024-02-16T12:21:54;20.35;;;9.30;;
44197;SDS011;30157;55.512;37.764;2024-02-16T12:24:22;22.00;;;8.95;;
44197;SDS011;30157;55.512;37.764;2024-02-16T12:26:49;21.88;;;10.27;;
44197;SDS011;30157;55.512;37.764;2024-02-16T12:29:15;21.48;;;8.90;;
44197;SDS011;30157;55.512;37.764;2024-02-16T12:31:41;15.80;;;5.78;;
44197;SDS011;30157;55.512;37.764;2024-02-16T12:34:09;24.17;;;10.98;;
44197;SDS011;30157;55.512;37.764;2024-02-16T12:36:36;19.25;;;9.05;;
44197;SDS011;30157;55.512;37.764;2024-02-16T12:39:04;20.33;;;9.75;;
44197;SDS011;30157;55.512;37.764;2024-02-16T12:41:31;22.60;;;9.57;;
44197;SDS011;30157;55.512;37.764;2024-02-16T12:44:01;17.35;;;8.48;;
44197;SDS011;30157;55.512;37.764;2024-02-16T12:46:27;21.33;;;9.93;;
44197;SDS011;30157;55.512;37.764;2024-02-16T12:48:55;16.38;;;7.95;;
44197;SDS011;30157;55.512;37.764;2024-02-16T12:51:21;17.33;;;8.27;;
44197;SDS011;30157;55.512;37.764;2024-02-16T12:53:47;20.05;;;8.95;;
44197;SDS011;30157;55.512;37.764;2024-02-16T12:56:13;17.13;;;7.85;;
44197;SDS011;30157;55.512;37.764;2024-02-16T12:58:39;22.15;;;10.10;;
44197;SDS011;30157;55.512;37.764;2024-02-16T13:01:04;20.13;;;8.32;;
44197;SDS011;30157;55.512;37.764;2024-02-16T13:03:34;16.88;;;7.10;;
44197;SDS011;30157;55.512;37.764;2024-02-16T13:06:00;22.13;;;7.88;;
44197;SDS011;30157;55.512;37.764;2024-02-16T13:08:29;21.50;;;8.43;;
44197;SDS011;30157;55.512;37.764;2024-02-16T13:10:56;18.30;;;8.07;;
44197;SDS011;30157;55.512;37.764;2024-02-16T13:13:22;16.67;;;8.18;;
44197;SDS011;30157;55.512;37.764;2024-02-16T13:15:48;18.88;;;7.15;;
44197;SDS011;30157;55.512;37.764;2024-02-16T13:18:14;15.43;;;6.80;;
44197;SDS011;30157;55.512;37.764;2024-02-16T13:20:40;16.02;;;6.57;;
44197;SDS011;30157;55.512;37.764;2024-02-16T13:23:06;20.65;;;8.73;;
44197;SDS011;30157;55.512;37.764;2024-02-16T13:25:32;12.98;;;6.28;;
44197;SDS011;30157;55.512;37.764;2024-02-16T13:27:58;16.20;;;7.93;;
44197;SDS011;30157;55.512;37.764;2024-02-16T13:30:25;16.75;;;8.00;;
44197;SDS011;30157;55.512;37.764;2024-02-16T13:32:52;17.45;;;8.25;;
44197;SDS011;30157;55.512;37.764;2024-02-16T13:35:18;13.73;;;6.03;;
44197;SDS011;30157;55.512;37.764;2024-02-16T13:37:43;20.52;;;8.98;;
44197;SDS011;30157;55.512;37.764;2024-02-16T13:40:09;20.17;;;8.65;;
44197;SDS011;30157;55.512;37.764;2024-02-16T13:42:38;17.27;;;8.35;;
44197;SDS011;30157;55.512;37.764;2024-02-16T13:45:05;17.95;;;7.05;;
44197;SDS011;30157;55.512;37.764;2024-02-16T13:47:31;19.63;;;9.35;;
44197;SDS011;30157;55.512;37.764;2024-02-16T13:49:57;16.92;;;8.65;;
44197;SDS011;30157;55.512;37.764;2024-02-16T13:52:23;18.45;;;8.48;;
44197;SDS011;30157;55.512;37.764;2024-02-16T13:54:49;19.42;;;7.63;;
44197;SDS011;30157;55.512;37.764;2024-02-16T13:57:18;19.15;;;8.45;;
44197;SDS011;30157;55.512;37.764;2024-02-16T13:59:45;20.95;;;8.73;;
44197;SDS011;30157;55.512;37.764;2024-02-16T14:02:12;17.52;;;7.18;;
44197;SDS011;30157;55.512;37.764;2024-02-16T14:04:38;13.38;;;5.80;;
44197;SDS011;30157;55.512;37.764;2024-02-16T14:07:05;17.02;;;7.78;;
44197;SDS011;30157;55.512;37.764;2024-02-16T14:09:33;25.40;;;10.55;;
44197;SDS011;30157;55.512;37.764;2024-02-16T14:11:59;19.88;;;8.35;;
44197;SDS011;30157;55.512;37.764;2024-02-16T14:14:25;16.20;;;6.13;;
44197;SDS011;30157;55.512;37.764;2024-02-16T14:16:51;20.08;;;8.52;;
44197;SDS011;30157;55.512;37.764;2024-02-16T14:19:17;15.95;;;6.72;;
44197;SDS011;30157;55.512;37.764;2024-02-16T14:21:43;13.02;;;6.15;;